Time;durP1;ratioP1;P1;durP2;ratioP2;P2;SDS_P1;SDS_P2;PMS_P1;PMS_P2;Temp;Humidity;BMP_temperature;BMP_pressure;BME280_temperature;BME280_humidity;BME280_pressure;Samples;Min_cycle;Max_cycle;Signal;HPM_P1;HPM_P2
2022/11/18 00:00:30;;;;;;;1.10;0.90;;;;;;;;;;5062632;28;20211;-85
2022/11/18 00:02:56;;;;;;;1.92;1.10;;;8.50;99.90;;;;;;5067529;28;20469;-84
2022/11/18 00:05:22;;;;;;;2.07;1.00;;;8.50;99.90;;;;;;5062903;28;20236;-85
2022/11/18 00:07:47;;;;;;;1.43;0.73;;;8.60;99.90;;;;;;5066750;28;20707;-85
2022/11/18 00:10:13;;;;;;;1.00;0.60;;;8.60;99.90;;;;;;5074459;28;20655;-82
2022/11/18 00:15:23;;;;;;;2.90;0.50;;;8.60;99.90;;;;;;5062639;28;20668;-86
2022/11/18 00:17:49;;;;;;;1.83;0.70;;;;;;;;;;5061482;28;20264;-87
2022/11/18 00:20:15;;;;;;;2.28;0.60;;;8.60;99.90;;;;;;5060643;28;20823;-86
2022/11/18 00:22:41;;;;;;;0.50;0.40;;;8.70;99.90;;;;;;5066669;28;20181;-85
2022/11/18 00:25:07;;;;;;;0.60;0.50;;;8.70;99.90;;;;;;5064050;28;20199;-87
2022/11/18 00:27:32;;;;;;;2.17;0.35;;;;;;;;;;5065709;28;20175;-90
2022/11/18 00:29:58;;;;;;;0.60;0.50;;;8.70;99.90;;;;;;5067853;28;20183;-90
2022/11/18 00:32:24;;;;;;;2.57;1.10;;;;;;;;;;5068179;28;20453;-89
2022/11/18 00:34:50;;;;;;;1.73;0.60;;;8.70;99.90;;;;;;5067686;28;20255;-90
2022/11/18 00:37:16;;;;;;;7.63;0.80;;;;;;;;;;5073027;28;20212;-91
2022/11/18 00:39:42;;;;;;;2.30;0.50;;;;;;;;;;5070585;28;20233;-90
2022/11/18 00:42:55;;;;;;;1.65;1.05;;;;;;;;;;5066749;28;20419;-90
2022/11/18 00:44:54;;;;;;;1.02;0.82;;;;;;;;;;5054643;28;20290;-87
2022/11/18 00:47:20;;;;;;;1.57;0.60;;;;;;;;;;5065365;28;20319;-84
2022/11/18 00:49:46;;;;;;;0.97;0.40;;;;;;;;;;5064598;28;23094;-85
2022/11/18 00:52:11;;;;;;;1.60;0.50;;;8.40;99.90;;;;;;5059273;28;20822;-82
2022/11/18 00:54:37;;;;;;;1.07;0.50;;;;;;;;;;5058352;28;20438;-87
2022/11/18 00:57:04;;;;;;;1.17;0.60;;;8.40;99.90;;;;;;5066309;28;20561;-83
2022/11/18 00:59:29;;;;;;;4.35;0.65;;;8.40;99.90;;;;;;5062818;28;20425;-83
2022/11/18 01:01:55;;;;;;;2.20;0.60;;;8.30;99.90;;;;;;5061240;28;20287;-85
2022/11/18 01:04:21;;;;;;;2.03;0.60;;;8.20;99.90;;;;;;5064715;28;20173;-83
2022/11/18 01:06:47;;;;;;;1.50;0.70;;;8.20;99.90;;;;;;5069644;28;20755;-85
2022/11/18 01:09:12;;;;;;;1.03;0.53;;;8.20;99.90;;;;;;5061240;28;20184;-82
2022/11/18 01:14:25;;;;;;;1.38;0.50;;;8.30;99.90;;;;;;5062014;28;20280;-84
2022/11/18 01:16:56;;;;;;;2.55;0.60;;;8.30;99.90;;;;;;5060513;28;20772;-86
2022/11/18 01:19:22;;;;;;;2.65;0.82;;;8.10;99.90;;;;;;5062954;28;20187;-86
2022/11/18 01:21:48;;;;;;;2.80;0.77;;;8.10;99.90;;;;;;5058807;28;20192;-84
2022/11/18 01:24:14;;;;;;;0.67;0.67;;;;;;;;;;5061602;28;20207;-86
2022/11/18 01:26:40;;;;;;;2.78;0.75;;;8.00;99.90;;;;;;5069684;28;20295;-84
2022/11/18 01:29:06;;;;;;;1.23;0.60;;;8.00;99.90;;;;;;5063941;28;20273;-86
2022/11/18 01:31:32;;;;;;;2.30;0.60;;;;;;;;;;5084514;28;20443;-85
2022/11/18 01:33:58;;;;;;;1.10;0.80;;;;;;;;;;5072183;28;20661;-84
2022/11/18 01:36:26;;;;;;;2.63;0.67;;;8.00;99.90;;;;;;5065336;28;20453;-83
2022/11/18 01:38:52;;;;;;;0.90;0.50;;;7.90;99.90;;;;;;5059787;28;20534;-83
2022/11/18 01:41:20;;;;;;;0.93;0.50;;;8.00;99.90;;;;;;5069988;28;20652;-85
2022/11/18 01:44:22;;;;;;;2.33;0.50;;;8.00;99.90;;;;;;5063710;28;20195;-83
2022/11/18 01:46:48;;;;;;;2.30;0.80;;;8.00;99.90;;;;;;5067555;28;20216;-84
2022/11/18 01:49:14;;;;;;;4.13;0.63;;;8.00;99.90;;;;;;5065994;28;20215;-84
2022/11/18 01:51:50;;;;;;;1.27;0.70;;;8.00;99.90;;;;;;5070411;28;20441;-85
2022/11/18 01:54:30;;;;;;;8.68;0.60;;;8.00;99.90;;;;;;5063511;28;20430;-82
2022/11/18 01:57:00;;;;;;;1.60;0.73;;;8.00;99.90;;;;;;5062207;28;20376;-84
2022/11/18 01:59:32;;;;;;;3.72;0.63;;;8.00;99.90;;;;;;5063829;28;20265;-81
2022/11/18 02:01:59;;;;;;;2.20;1.30;;;8.00;99.90;;;;;;5064615;28;20212;-83
2022/11/18 02:04:26;;;;;;;0.70;0.50;;;8.10;99.90;;;;;;5062165;28;20173;-83
2022/11/18 02:06:53;;;;;;;3.63;0.70;;;7.90;99.90;;;;;;5065091;28;20231;-84
2022/11/18 02:09:19;;;;;;;1.60;0.95;;;7.90;99.90;;;;;;5066913;28;20179;-82
2022/11/18 02:11:55;;;;;;;2.50;0.80;;;7.90;99.90;;;;;;5067200;28;20208;-82
2022/11/18 02:14:23;;;;;;;2.65;0.70;;;7.90;99.90;;;;;;5072123;28;20181;-82
2022/11/18 02:17:13;;;;;;;3.10;1.25;;;7.90;99.90;;;;;;5063871;28;20220;-82
2022/11/18 02:19:44;;;;;;;0.65;0.32;;;7.90;99.90;;;;;;5076805;28;20180;-83
2022/11/18 02:22:10;;;;;;;1.65;0.93;;;7.90;99.90;;;;;;5065190;28;20199;-86
2022/11/18 02:25:07;;;;;;;2.50;0.80;;;7.90;99.90;;;;;;5061474;28;20744;-82
2022/11/18 02:28:07;;;;;;;1.25;0.70;;;7.90;99.90;;;;;;5059722;28;20239;-82
2022/11/18 02:30:52;;;;;;;1.88;0.70;;;7.90;99.90;;;;;;5076807;28;20200;-81
2022/11/18 02:33:25;;;;;;;1.23;0.73;;;7.90;99.90;;;;;;5062263;28;20184;-83
2022/11/18 02:36:28;;;;;;;1.35;0.70;;;7.90;99.90;;;;;;5060565;28;20300;-82
2022/11/18 02:39:06;;;;;;;1.13;0.70;;;7.90;99.90;;;;;;5052237;28;20847;-82
2022/11/18 02:41:34;;;;;;;0.88;0.70;;;7.90;99.90;;;;;;5057140;28;20192;-82
2022/11/18 02:44:05;;;;;;;0.50;0.40;;;7.90;99.90;;;;;;5063038;28;20181;-84
2022/11/18 02:46:34;;;;;;;2.35;1.02;;;7.90;99.90;;;;;;5058428;28;20212;-82
2022/11/18 02:49:02;;;;;;;0.93;0.63;;;7.90;99.90;;;;;;5060113;28;20522;-86
2022/11/18 02:51:30;;;;;;;1.10;0.60;;;7.90;99.90;;;;;;5066574;28;20193;-85
2022/11/18 02:54:01;;;;;;;1.48;0.73;;;7.90;99.90;;;;;;5059473;28;20187;-85
2022/11/18 02:56:28;;;;;;;3.30;0.70;;;7.90;99.90;;;;;;5063681;28;20211;-84
2022/11/18 02:58:54;;;;;;;0.70;0.60;;;7.90;99.90;;;;;;5064941;28;20195;-85
2022/11/18 03:01:26;;;;;;;1.53;0.60;;;7.90;99.90;;;;;;5062033;28;20244;-82
2022/11/18 03:03:51;;;;;;;0.40;0.30;;;7.90;99.90;;;;;;5061940;28;20442;-84
2022/11/18 03:06:29;;;;;;;2.03;0.50;;;7.90;99.90;;;;;;5069262;28;20208;-83
2022/11/18 03:09:09;;;;;;;0.65;0.60;;;7.80;99.90;;;;;;5063208;28;20199;-83
2022/11/18 03:12:10;;;;;;;1.92;1.08;;;7.80;99.90;;;;;;5061804;28;20274;-84
2022/11/18 03:14:48;;;;;;;1.00;0.50;;;7.80;99.90;;;;;;5043357;28;20181;-84
2022/11/18 03:17:55;;;;;;;0.40;0.32;;;7.70;99.90;;;;;;5060137;28;20222;-83
2022/11/18 03:20:26;;;;;;;1.15;0.40;;;7.70;99.90;;;;;;5058435;28;20271;-85
2022/11/18 03:22:56;;;;;;;1.52;0.63;;;7.80;99.90;;;;;;5066325;28;20173;-85
2022/11/18 03:25:43;;;;;;;0.40;0.30;;;7.80;99.90;;;;;;5064891;28;20219;-85
2022/11/18 03:28:21;;;;;;;1.00;0.50;;;7.80;99.90;;;;;;5063378;28;20196;-83
2022/11/18 03:30:57;;;;;;;0.40;0.30;;;7.80;99.90;;;;;;5062997;28;20204;-85
2022/11/18 03:33:29;;;;;;;3.05;0.90;;;7.80;99.90;;;;;;5077809;28;20184;-82
2022/11/18 03:35:56;;;;;;;0.70;0.40;;;7.80;99.90;;;;;;5069686;28;20592;-83
2022/11/18 03:38:28;;;;;;;1.05;0.40;;;7.80;99.90;;;;;;5064048;28;20851;-83
2022/11/18 03:41:00;;;;;;;0.30;0.30;;;7.70;99.90;;;;;;5064598;28;20751;-84
2022/11/18 03:43:30;;;;;;;0.63;0.63;;;7.70;99.90;;;;;;5057178;28;20206;-81
2022/11/18 03:46:03;;;;;;;5.72;0.75;;;7.70;99.90;;;;;;5060461;28;20208;-82
2022/11/18 03:48:34;;;;;;;4.07;0.40;;;7.70;99.90;;;;;;5070155;28;20233;-83
2022/11/18 03:51:13;;;;;;;1.55;0.70;;;7.70;99.90;;;;;;5055479;28;20187;-84
2022/11/18 03:53:46;;;;;;;0.63;0.50;;;7.80;99.90;;;;;;5062052;28;20272;-83
2022/11/18 03:56:20;;;;;;;3.70;0.80;;;7.80;99.90;;;;;;5057988;28;20268;-84
2022/11/18 03:59:12;;;;;;;0.60;0.60;;;7.80;99.90;;;;;;5053169;28;20229;-83
2022/11/18 04:01:44;;;;;;;2.33;0.40;;;7.80;99.90;;;;;;5069481;28;21091;-84
2022/11/18 04:04:11;;;;;;;2.35;0.50;;;7.80;99.90;;;;;;5061265;28;20176;-84
2022/11/18 04:06:58;;;;;;;10.45;1.17;;;7.70;99.90;;;;;;5062420;28;21269;-82
2022/11/18 04:09:29;;;;;;;0.95;0.70;;;7.80;99.90;;;;;;5061437;28;20185;-82
2022/11/18 04:12:12;;;;;;;1.58;0.70;;;7.80;99.90;;;;;;5062666;28;20188;-80
2022/11/18 04:14:42;;;;;;;0.40;0.30;;;7.70;99.90;;;;;;5060441;28;20172;-82
2022/11/18 04:17:13;;;;;;;1.08;0.40;;;7.70;99.90;;;;;;5061712;28;20223;-82
2022/11/18 04:19:39;;;;;;;2.15;0.40;;;7.70;99.90;;;;;;5070026;28;20730;-87
2022/11/18 04:22:06;;;;;;;0.60;0.40;;;7.60;99.90;;;;;;5073017;28;20192;-88
2022/11/18 04:24:32;;;;;;;0.60;0.60;;;7.60;99.90;;;;;;5068734;28;20248;-89
2022/11/18 04:26:58;;;;;;;6.43;0.60;;;7.60;99.90;;;;;;5072434;28;20252;-87
2022/11/18 04:29:24;;;;;;;0.70;0.50;;;;;;;;;;5069846;28;20434;-87
2022/11/18 04:31:50;;;;;;;0.70;0.30;;;7.50;99.90;;;;;;5076013;28;20180;-85
2022/11/18 04:34:16;;;;;;;0.60;0.40;;;7.50;99.90;;;;;;5070993;28;20435;-88
2022/11/18 04:36:41;;;;;;;1.33;0.40;;;7.50;99.90;;;;;;5091509;28;20204;-87
2022/11/18 04:39:07;;;;;;;0.40;0.40;;;7.40;99.90;;;;;;5075591;28;20180;-89
2022/11/18 04:44:18;;;;;;;1.13;0.63;;;7.40;99.90;;;;;;5076416;28;20265;-89
2022/11/18 04:46:44;;;;;;;2.17;0.75;;;7.40;99.90;;;;;;5079167;28;20364;-88
2022/11/18 04:49:12;;;;;;;2.10;0.80;;;7.30;99.90;;;;;;5074531;28;20181;-88
2022/11/18 04:51:38;;;;;;;1.85;0.52;;;;;;;;;;5078665;28;20434;-87
2022/11/18 04:54:04;;;;;;;0.70;0.57;;;7.40;99.90;;;;;;5075553;28;20188;-86
2022/11/18 04:56:30;;;;;;;2.63;0.55;;;;;;;;;;5093217;28;20274;-86
2022/11/18 04:58:58;;;;;;;3.70;0.40;;;7.40;99.90;;;;;;5077908;28;20185;-86
2022/11/18 05:01:24;;;;;;;1.50;0.35;;;7.40;99.90;;;;;;5075866;28;20212;-87
2022/11/18 05:03:50;;;;;;;2.20;0.50;;;;;;;;;;5074830;28;20657;-88
2022/11/18 05:06:16;;;;;;;1.03;0.60;;;;;;;;;;5071090;28;20474;-87
2022/11/18 05:08:42;;;;;;;1.97;0.90;;;;;;;;;;5078798;28;20415;-89
2022/11/18 05:13:53;;;;;;;1.17;0.60;;;7.60;99.90;;;;;;5080257;28;20425;-89
2022/11/18 05:16:18;;;;;;;3.05;0.70;;;7.60;99.90;;;;;;5086934;28;20232;-90
2022/11/18 05:18:45;;;;;;;0.60;0.53;;;;;;;;;;5092447;28;20192;-91
2022/11/18 05:21:11;;;;;;;1.33;0.88;;;7.60;99.90;;;;;;5084036;28;20180;-92
2022/11/18 05:23:37;;;;;;;1.33;0.50;;;;;;;;;;5078244;28;20699;-91
2022/11/18 05:26:07;;;;;;;3.17;1.00;;;7.50;99.90;;;;;;5078380;28;20955;-90
2022/11/18 05:28:32;;;;;;;0.75;0.60;;;7.50;99.90;;;;;;5070550;28;20449;-91
2022/11/18 05:30:59;;;;;;;1.33;0.97;;;;;;;;;;5081540;28;20168;-89
2022/11/18 05:33:24;;;;;;;0.70;0.60;;;7.60;99.90;;;;;;5075416;28;20529;-90
2022/11/18 05:35:50;;;;;;;0.60;0.43;;;;;;;;;;5079743;28;20204;-91
2022/11/18 05:38:16;;;;;;;1.93;0.93;;;;;;;;;;5078861;28;20192;-89
2022/11/18 05:40:43;;;;;;;0.87;0.80;;;;;;;;;;5076603;28;20415;-89
2022/11/18 05:43:12;;;;;;;0.70;0.50;;;7.50;99.90;;;;;;5090553;28;20994;-89
2022/11/18 05:45:39;;;;;;;1.65;0.60;;;10.20;99.90;;;;;;5085202;28;20652;-90
2022/11/18 05:48:06;;;;;;;0.40;0.38;;;7.10;99.90;;;;;;5082542;28;20181;-89
2022/11/18 05:50:33;;;;;;;3.15;0.70;;;7.40;99.90;;;;;;5077974;28;20569;-90
2022/11/18 05:52:59;;;;;;;1.50;0.80;;;7.50;99.90;;;;;;5073949;28;20271;-90
2022/11/18 05:55:36;;;;;;;3.40;0.70;;;7.50;99.90;;;;;;5080522;28;20478;-89
2022/11/18 05:58:01;;;;;;;2.78;0.77;;;7.50;99.90;;;;;;5079131;28;20419;-88
2022/11/18 06:00:27;;;;;;;2.10;0.60;;;;;;;;;;5081188;28;20818;-91
2022/11/18 06:02:55;;;;;;;5.00;0.80;;;7.50;99.90;;;;;;5080783;28;20576;-91
2022/11/18 06:05:22;;;;;;;3.15;0.93;;;9.20;99.90;;;;;;5075786;28;20255;-92
2022/11/18 06:07:48;;;;;;;1.45;0.60;;;8.20;99.90;;;;;;5071514;28;20260;-90
2022/11/18 06:10:24;;;;;;;1.03;0.40;;;7.40;99.90;;;;;;5077290;28;20267;-90
2022/11/18 06:12:54;;;;;;;4.05;0.85;;;7.40;99.90;;;;;;5076858;28;20168;-90
2022/11/18 06:15:32;;;;;;;0.65;0.65;;;7.40;99.90;;;;;;5069103;28;20205;-90
2022/11/18 06:18:11;;;;;;;1.60;0.30;;;7.40;99.90;;;;;;5074220;28;20704;-89
2022/11/18 06:20:39;;;;;;;0.50;0.50;;;7.30;99.90;;;;;;5072782;28;20184;-90
2022/11/18 06:23:04;;;;;;;0.68;0.40;;;7.30;99.90;;;;;;5071718;28;20172;-90
2022/11/18 06:25:31;;;;;;;0.63;0.50;;;7.30;99.90;;;;;;5076215;28;20218;-90
2022/11/18 06:27:59;;;;;;;0.73;0.60;;;7.20;99.90;;;;;;5071014;28;20276;-90
2022/11/18 06:30:25;;;;;;;1.05;0.47;;;7.20;99.90;;;;;;5078847;28;20183;-89
2022/11/18 06:32:50;;;;;;;1.80;0.50;;;7.20;99.90;;;;;;5069813;28;20169;-91
2022/11/18 06:35:17;;;;;;;1.07;0.67;;;7.20;99.90;;;;;;5062194;28;20193;-90
2022/11/18 06:37:43;;;;;;;1.63;0.45;;;7.20;99.90;;;;;;5074376;28;20545;-90
2022/11/18 06:40:10;;;;;;;2.20;0.47;;;7.20;99.90;;;;;;5074092;28;20193;-90
2022/11/18 06:45:24;;;;;;;1.15;0.95;;;7.10;99.90;;;;;;5072952;28;20291;-89
2022/11/18 06:47:57;;;;;;;1.88;1.60;;;7.10;99.90;;;;;;5079731;28;20748;-90
2022/11/18 06:50:24;;;;;;;1.52;1.30;;;7.10;99.90;;;;;;5073098;28;20177;-89
2022/11/18 06:52:50;;;;;;;1.17;0.80;;;7.80;99.90;;;;;;5070423;28;20172;-89
2022/11/18 06:55:16;;;;;;;1.00;0.73;;;;;;;;;;5067298;28;20587;-90
2022/11/18 06:57:43;;;;;;;0.85;0.80;;;7.10;99.90;;;;;;5071279;28;20221;-90
2022/11/18 07:00:11;;;;;;;0.60;0.30;;;7.10;99.90;;;;;;5076970;28;20196;-90
2022/11/18 07:02:37;;;;;;;0.40;0.40;;;7.10;99.90;;;;;;5078204;28;20735;-90
2022/11/18 07:05:03;;;;;;;1.05;0.75;;;7.10;99.90;;;;;;5077202;28;20275;-91
2022/11/18 07:07:29;;;;;;;2.65;1.70;;;7.10;99.90;;;;;;5077239;28;20172;-90
2022/11/18 07:09:54;;;;;;;3.93;0.80;;;7.10;99.90;;;;;;5078284;28;20187;-90
2022/11/18 07:12:20;;;;;;;1.00;0.80;;;;;;;;;;5075951;28;20176;-89
2022/11/18 07:14:54;;;;;;;0.90;0.70;;;7.10;99.90;;;;;;5077232;28;20595;-89
2022/11/18 07:17:19;;;;;;;0.40;0.40;;;7.10;99.90;;;;;;5070521;28;20472;-90
2022/11/18 07:19:45;;;;;;;0.70;0.70;;;;;;;;;;5064965;28;20161;-89
2022/11/18 07:22:11;;;;;;;0.87;0.47;;;7.10;99.90;;;;;;5073717;28;20177;-90
2022/11/18 07:24:36;;;;;;;0.63;0.50;;;7.10;99.90;;;;;;5074077;28;20434;-89
2022/11/18 07:27:02;;;;;;;0.80;0.40;;;7.10;99.90;;;;;;5069789;28;20545;-89
2022/11/18 07:29:29;;;;;;;0.93;0.50;;;7.50;99.90;;;;;;5082171;28;20171;-89
2022/11/18 07:31:54;;;;;;;0.60;0.50;;;7.00;99.90;;;;;;5077908;28;20192;-90
2022/11/18 07:34:20;;;;;;;3.90;0.50;;;7.00;99.90;;;;;;5076028;28;20272;-90
2022/11/18 07:36:49;;;;;;;0.43;0.40;;;7.00;99.90;;;;;;5070164;28;20988;-89
2022/11/18 07:39:17;;;;;;;2.25;0.70;;;7.00;99.90;;;;;;5076048;28;20631;-89
2022/11/18 07:41:45;;;;;;;0.98;0.38;;;7.00;99.90;;;;;;5073938;28;20629;-90
2022/11/18 07:44:10;;;;;;;0.70;0.50;;;7.00;99.90;;;;;;5079312;28;20180;-90
2022/11/18 07:46:37;;;;;;;1.70;0.40;;;7.10;99.90;;;;;;5078852;28;20224;-89
2022/11/18 07:49:10;;;;;;;2.40;0.60;;;7.10;99.90;;;;;;5076975;28;20165;-89
2022/11/18 07:51:38;;;;;;;0.50;0.35;;;7.10;99.90;;;;;;5078512;28;20332;-89
2022/11/18 07:54:08;;;;;;;0.40;0.40;;;7.10;99.90;;;;;;5075137;28;20180;-89
2022/11/18 07:56:36;;;;;;;0.95;0.50;;;7.10;99.90;;;;;;5073893;28;20226;-90
2022/11/18 07:59:01;;;;;;;1.30;0.40;;;7.10;99.90;;;;;;5072704;28;20177;-91
2022/11/18 08:01:29;;;;;;;0.93;0.57;;;;;;;;;;5073913;28;20187;-90
2022/11/18 08:03:55;;;;;;;0.75;0.45;;;7.10;99.90;;;;;;5079080;28;20218;-89
2022/11/18 08:06:21;;;;;;;0.80;0.40;;;;;;;;;;5071027;28;20213;-89
2022/11/18 08:08:51;;;;;;;0.57;0.40;;;7.20;99.90;;;;;;5071133;28;20387;-89
2022/11/18 08:11:18;;;;;;;0.88;0.57;;;7.20;99.90;;;;;;5070431;28;20574;-89
2022/11/18 08:13:44;;;;;;;1.95;0.50;;;7.20;99.90;;;;;;5074657;28;20177;-90
2022/11/18 08:16:15;;;;;;;0.50;0.43;;;7.30;99.90;;;;;;5069882;28;20575;-91
2022/11/18 08:18:43;;;;;;;2.15;0.35;;;7.30;99.90;;;;;;5070379;28;20688;-89
2022/11/18 08:21:09;;;;;;;1.02;0.55;;;7.30;99.90;;;;;;5065819;28;20219;-90
2022/11/18 08:23:35;;;;;;;0.93;0.50;;;;;;;;;;5071642;28;20302;-90
2022/11/18 08:26:05;;;;;;;0.82;0.45;;;7.40;99.90;;;;;;5070467;28;20538;-90
2022/11/18 08:28:31;;;;;;;0.80;0.50;;;7.40;99.90;;;;;;5078626;28;20184;-90
2022/11/18 08:30:57;;;;;;;0.40;0.40;;;7.40;99.90;;;;;;5069922;28;20153;-89
2022/11/18 08:33:23;;;;;;;0.73;0.40;;;;;;;;;;5073222;28;20191;-89
2022/11/18 08:35:55;;;;;;;2.73;0.43;;;7.40;99.90;;;;;;5076654;28;20296;-91
2022/11/18 08:38:23;;;;;;;0.52;0.45;;;7.40;99.90;;;;;;5072856;28;20792;-91
2022/11/18 08:40:49;;;;;;;0.68;0.43;;;;;;;;;;5072161;28;20184;-90
2022/11/18 08:43:15;;;;;;;3.07;0.40;;;;;;;;;;5067186;28;20172;-90
2022/11/18 08:45:41;;;;;;;0.60;0.50;;;;;;;;;;5068790;28;20524;-90
2022/11/18 08:48:07;;;;;;;1.67;0.47;;;7.50;99.90;;;;;;5075627;28;20415;-89
2022/11/18 08:50:33;;;;;;;0.50;0.50;;;;;;;;;;5077883;28;20422;-90
2022/11/18 08:52:58;;;;;;;0.50;0.43;;;7.50;99.90;;;;;;5074902;28;20245;-89
2022/11/18 08:55:24;;;;;;;1.10;0.60;;;;;;;;;;5068982;28;20236;-90
2022/11/18 08:57:50;;;;;;;0.80;0.70;;;;;;;;;;5073208;28;20176;-89
2022/11/18 09:00:16;;;;;;;3.70;0.40;;;7.60;99.90;;;;;;5074275;28;20454;-90
2022/11/18 09:02:42;;;;;;;0.60;0.50;;;7.70;99.90;;;;;;5070242;28;20431;-90
2022/11/18 09:05:07;;;;;;;0.70;0.40;;;7.80;99.90;;;;;;5063326;28;20324;-91
2022/11/18 09:07:33;;;;;;;1.90;0.50;;;;;;;;;;5071929;28;20215;-89
2022/11/18 09:09:59;;;;;;;1.80;0.73;;;7.90;99.90;;;;;;5069619;28;20172;-89
2022/11/18 09:12:25;;;;;;;0.50;0.43;;;;;;;;;;5078032;28;20436;-90
2022/11/18 09:14:55;;;;;;;2.00;0.40;;;7.90;99.90;;;;;;5068885;28;20179;-90
2022/11/18 09:17:20;;;;;;;1.35;0.57;;;7.90;99.90;;;;;;5074559;28;20461;-90
2022/11/18 09:19:46;;;;;;;0.40;0.33;;;;;;;;;;5068186;28;20279;-89
2022/11/18 09:22:12;;;;;;;0.60;0.50;;;8.00;99.90;;;;;;5071849;28;20193;-91
2022/11/18 09:24:43;;;;;;;0.97;0.50;;;7.90;99.90;;;;;;5071738;28;20427;-91
2022/11/18 09:27:12;;;;;;;0.50;0.40;;;8.00;99.90;;;;;;5075368;28;20200;-89
2022/11/18 09:29:42;;;;;;;0.45;0.40;;;8.10;99.90;;;;;;5075445;28;20185;-89
2022/11/18 09:32:08;;;;;;;0.65;0.45;;;8.10;99.90;;;;;;5072033;28;20184;-89
2022/11/18 09:34:35;;;;;;;0.80;0.45;;;8.00;99.90;;;;;;5067664;28;20687;-90
2022/11/18 09:37:04;;;;;;;0.50;0.50;;;8.10;99.90;;;;;;5069378;28;20197;-90
2022/11/18 09:39:30;;;;;;;0.57;0.50;;;8.10;99.90;;;;;;5072767;28;20181;-90
2022/11/18 09:42:14;;;;;;;2.30;0.80;;;8.10;99.90;;;;;;5065425;28;20181;-90
2022/11/18 09:45:02;;;;;;;2.03;0.80;;;8.00;99.90;;;;;;5071289;28;20168;-90
2022/11/18 09:47:30;;;;;;;0.85;0.70;;;8.10;99.90;;;;;;5075095;28;20291;-90
2022/11/18 09:50:09;;;;;;;2.15;0.57;;;8.10;99.90;;;;;;5071137;28;21537;-90
2022/11/18 09:53:01;;;;;;;3.35;1.38;;;8.30;99.90;;;;;;5071811;28;20185;-90
2022/11/18 09:55:36;;;;;;;1.25;0.65;;;8.30;99.90;;;;;;5067861;28;20196;-90
2022/11/18 09:58:02;;;;;;;0.63;0.63;;;8.50;99.90;;;;;;5084250;28;20180;-90
2022/11/18 10:00:30;;;;;;;1.00;0.90;;;8.50;99.90;;;;;;5077161;28;20205;-89
2022/11/18 10:03:11;;;;;;;1.00;0.90;;;8.60;99.90;;;;;;5077140;28;20288;-90
2022/11/18 10:05:51;;;;;;;2.15;0.95;;;8.60;99.90;;;;;;5075349;28;20204;-90
2022/11/18 10:08:39;;;;;;;1.45;1.20;;;8.80;99.90;;;;;;5081368;28;20193;-90
2022/11/18 10:11:18;;;;;;;2.90;1.75;;;8.70;99.90;;;;;;5080577;28;20211;-90
2022/11/18 10:13:55;;;;;;;2.00;1.38;;;8.80;99.90;;;;;;5064530;28;20181;-87
2022/11/18 10:16:30;;;;;;;5.80;2.20;;;8.90;99.90;;;;;;5069511;28;20211;-86
2022/11/18 10:19:14;;;;;;;2.30;1.15;;;8.90;99.90;;;;;;5068049;28;20185;-88
2022/11/18 10:21:50;;;;;;;0.98;0.98;;;8.90;99.90;;;;;;5067641;28;20528;-89
2022/11/18 10:24:40;;;;;;;1.65;1.50;;;9.20;99.90;;;;;;5078841;28;20210;-90
2022/11/18 10:27:10;;;;;;;3.13;1.35;;;9.20;99.90;;;;;;5073368;28;20256;-88
2022/11/18 10:29:36;;;;;;;1.25;1.10;;;9.30;99.90;;;;;;5063472;28;20181;-87
2022/11/18 10:32:05;;;;;;;5.80;1.03;;;9.40;99.90;;;;;;5057612;28;20240;-87
2022/11/18 10:34:33;;;;;;;3.05;1.40;;;9.40;99.90;;;;;;5062278;28;20181;-87
2022/11/18 10:37:03;;;;;;;3.10;1.80;;;9.10;99.90;;;;;;5070156;28;20212;-88
2022/11/18 10:39:29;;;;;;;2.38;1.50;;;9.10;99.90;;;;;;5070435;28;20181;-87
2022/11/18 10:42:05;;;;;;;9.73;1.40;;;9.20;99.90;;;;;;5068006;28;20304;-87
2022/11/18 10:44:34;;;;;;;4.00;1.55;;;9.30;99.90;;;;;;5068902;28;20176;-87
2022/11/18 10:47:20;;;;;;;2.00;1.30;;;9.00;99.90;;;;;;5065339;28;20219;-87
2022/11/18 10:49:45;;;;;;;2.75;1.10;;;9.00;99.90;;;;;;5062956;28;20247;-87
2022/11/18 10:52:13;;;;;;;2.63;1.07;;;9.10;99.90;;;;;;5069022;28;20185;-87
2022/11/18 10:54:40;;;;;;;1.63;1.50;;;9.20;99.90;;;;;;5062511;28;20184;-87
2022/11/18 10:57:18;;;;;;;1.30;1.20;;;9.40;99.90;;;;;;5068906;28;20230;-87
2022/11/18 10:59:53;;;;;;;3.30;1.40;;;9.40;99.90;;;;;;5058929;28;20269;-87
2022/11/18 11:02:38;;;;;;;1.45;1.35;;;9.50;99.90;;;;;;5067240;28;20202;-87
2022/11/18 11:05:18;;;;;;;5.65;1.90;;;9.30;99.90;;;;;;5064918;28;20173;-87
2022/11/18 11:07:44;;;;;;;5.25;1.85;;;;;;;;;;5068726;28;20191;-87
2022/11/18 11:10:10;;;;;;;1.97;1.83;;;;;;;;;;5060624;28;20173;-86
2022/11/18 11:12:48;;;;;;;3.70;1.93;;;9.30;99.90;;;;;;5077738;28;20438;-88
2022/11/18 11:15:18;;;;;;;4.35;1.85;;;9.20;99.90;;;;;;5064455;28;20484;-87
2022/11/18 11:20:43;;;;;;;1.90;1.40;;;9.20;99.90;;;;;;5054507;28;20215;-87
2022/11/18 11:23:12;;;;;;;2.13;1.40;;;9.10;99.90;;;;;;5060220;28;20191;-87
2022/11/18 11:25:56;;;;;;;5.07;2.38;;;9.10;99.90;;;;;;5058707;28;20205;-87
2022/11/18 11:28:52;;;;;;;3.50;1.25;;;9.20;99.90;;;;;;5059699;28;20219;-87
2022/11/18 11:31:32;;;;;;;1.65;1.27;;;9.10;99.90;;;;;;5058555;28;20192;-87
2022/11/18 11:34:01;;;;;;;2.75;1.70;;;9.10;99.90;;;;;;5064026;28;20204;-87
2022/11/18 11:36:45;;;;;;;1.52;0.80;;;9.20;99.90;;;;;;5066900;28;20203;-87
2022/11/18 11:39:39;;;;;;;3.83;1.40;;;9.20;99.90;;;;;;5060774;28;20181;-87
2022/11/18 11:42:12;;;;;;;3.55;1.20;;;9.40;99.90;;;;;;5059006;28;20181;-87
2022/11/18 11:44:55;;;;;;;2.63;1.27;;;8.70;99.90;;;;;;5058830;28;20180;-87
2022/11/18 11:47:46;;;;;;;1.48;1.20;;;9.60;99.90;;;;;;5079306;28;20200;-87
2022/11/18 11:50:23;;;;;;;3.15;1.30;;;9.80;99.90;;;;;;5062599;28;20216;-86
2022/11/18 11:53:33;;;;;;;3.92;2.75;;;10.00;99.90;;;;;;5066253;28;20172;-87
2022/11/18 11:56:03;;;;;;;1.33;1.17;;;10.00;99.90;;;;;;5042281;28;20265;-88
2022/11/18 11:58:53;;;;;;;2.13;1.58;;;10.00;99.90;;;;;;5057686;28;20275;-87
2022/11/18 12:01:38;;;;;;;3.72;1.55;;;9.80;99.90;;;;;;5081769;28;20711;-87
2022/11/18 12:04:37;;;;;;;1.25;1.08;;;9.70;99.90;;;;;;5080071;28;20189;-87
2022/11/18 12:07:05;;;;;;;4.35;1.17;;;9.70;99.90;;;;;;5072285;28;20220;-87
2022/11/18 12:09:31;;;;;;;1.50;1.40;;;10.90;99.90;;;;;;5070962;28;20589;-88
2022/11/18 12:12:32;;;;;;;0.93;0.67;;;9.50;99.90;;;;;;5076782;28;20220;-87
2022/11/18 12:14:55;;;;;;;2.00;1.00;;;9.40;99.90;;;;;;5061796;28;20196;-87
2022/11/18 12:17:26;;;;;;;1.85;0.90;;;9.40;99.90;;;;;;5065513;28;20223;-87
2022/11/18 12:19:52;;;;;;;4.40;0.82;;;;;;;;;;5073144;28;21377;-87
2022/11/18 12:22:18;;;;;;;3.20;0.77;;;;;;;;;;5069248;28;20179;-87
2022/11/18 12:24:44;;;;;;;4.57;1.00;;;;;;;;;;5078533;28;20811;-87
2022/11/18 12:27:12;;;;;;;5.05;1.40;;;9.30;99.90;;;;;;5070600;28;20471;-87
2022/11/18 12:29:49;;;;;;;2.88;1.33;;;9.30;99.90;;;;;;5061084;28;20268;-87
2022/11/18 12:32:45;;;;;;;2.05;1.05;;;9.20;99.90;;;;;;5082794;28;21220;-87
2022/11/18 12:35:10;;;;;;;3.22;1.60;;;9.00;99.90;;;;;;5064620;28;20153;-87
2022/11/18 12:37:52;;;;;;;11.73;4.07;;;9.00;99.90;;;;;;5078005;28;20268;-87
2022/11/18 12:40:42;;;;;;;2.97;1.75;;;9.00;99.90;;;;;;5077347;28;20287;-87
2022/11/18 12:43:46;;;;;;;2.95;1.45;;;8.90;99.90;;;;;;5065236;28;20235;-87
2022/11/18 12:46:35;;;;;;;5.07;1.85;;;9.00;99.90;;;;;;5063098;28;20231;-87
2022/11/18 12:49:20;;;;;;;2.60;1.25;;;9.10;99.90;;;;;;5078106;28;20180;-87
2022/11/18 12:51:46;;;;;;;5.90;2.45;;;9.10;99.90;;;;;;5057301;28;20176;-87
2022/11/18 12:54:31;;;;;;;3.08;1.70;;;9.10;99.90;;;;;;5060075;28;20754;-87
2022/11/18 12:57:19;;;;;;;3.85;1.55;;;9.30;99.90;;;;;;5064697;28;20200;-86
2022/11/18 12:59:44;;;;;;;5.80;1.83;;;9.30;99.90;;;;;;5066129;28;20193;-87
2022/11/18 13:02:10;;;;;;;7.60;2.00;;;9.20;99.90;;;;;;5060208;28;20181;-86
2022/11/18 13:04:39;;;;;;;10.63;2.57;;;9.00;99.90;;;;;;5076357;28;20241;-86
2022/11/18 13:08:11;;;;;;;3.88;1.48;;;9.00;99.90;;;;;;5065536;28;20203;-86
2022/11/18 13:09:55;;;;;;;2.85;2.05;;;8.60;99.90;;;;;;5057994;28;20254;-86
2022/11/18 13:12:26;;;;;;;5.68;1.50;;;8.60;99.90;;;;;;5077024;28;20253;-86
2022/11/18 13:17:53;;;;;;;3.80;1.60;;;8.60;99.90;;;;;;5058676;28;20198;-86
2022/11/18 13:20:35;;;;;;;5.20;1.80;;;8.50;99.90;;;;;;5062490;28;20219;-85
2022/11/18 13:26:24;;;;;;;3.30;2.60;;;8.60;99.90;;;;;;5060529;28;20223;-86
2022/11/18 13:28:52;;;;;;;6.72;1.63;;;8.70;99.90;;;;;;5075348;28;20276;-87
2022/11/18 13:31:39;;;;;;;4.85;2.47;;;8.80;99.90;;;;;;5061988;28;20176;-86
2022/11/18 13:34:25;;;;;;;2.72;1.90;;;8.80;99.90;;;;;;5077187;28;20211;-87
2022/11/18 13:36:53;;;;;;;1.88;1.48;;;8.90;99.90;;;;;;5061623;28;20206;-87
2022/11/18 13:39:22;;;;;;;2.10;1.60;;;8.80;99.90;;;;;;5066666;28;20210;-87
2022/11/18 13:42:21;;;;;;;6.78;1.30;;;9.00;99.90;;;;;;5068483;28;20184;-87
2022/11/18 13:44:58;;;;;;;6.70;1.58;;;9.00;99.90;;;;;;5050861;28;20188;-87
2022/11/18 13:47:24;;;;;;;7.40;2.13;;;;;;;;;;5060335;28;20211;-87
2022/11/18 13:50:05;;;;;;;9.97;2.53;;;9.00;99.90;;;;;;5061072;28;20267;-87
2022/11/18 13:52:37;;;;;;;4.43;2.00;;;9.00;99.90;;;;;;5074354;28;20531;-87
2022/11/18 13:55:20;;;;;;;2.50;1.70;;;9.00;99.90;;;;;;5063734;28;20189;-87